sensor_id;sensor_type;location;lat;lon;timestamp;pressure;altitude;pressure_sealevel;temperature;humidity
21781;BME280;52576;53.614;9.894;2023-03-30T00:00:25;100542.53;;;9.19;84.49
21781;BME280;52576;53.614;9.894;2023-03-30T00:02:29;100535.53;;;9.19;84.53
21781;BME280;52576;53.614;9.894;2023-03-30T00:04:32;100527.69;;;9.19;84.62
21781;BME280;52576;53.614;9.894;2023-03-30T00:06:38;100526.84;;;9.19;84.63
21781;BME280;52576;53.614;9.894;2023-03-30T00:08:43;100519.84;;;9.19;84.60
21781;BME280;52576;53.614;9.894;2023-03-30T00:10:47;100512.09;;;9.18;84.55
21781;BME280;52576;53.614;9.894;2023-03-30T00:12:52;100516.50;;;9.17;84.71
21781;BME280;52576;53.614;9.894;2023-03-30T00:14:55;100513.88;;;9.17;84.71
21781;BME280;52576;53.614;9.894;2023-03-30T00:16:58;100514.81;;;9.16;84.65
21781;BME280;52576;53.614;9.894;2023-03-30T00:19:01;100515.66;;;9.17;84.70
21781;BME280;52576;53.614;9.894;2023-03-30T00:21:05;100514.81;;;9.16;84.72
21781;BME280;52576;53.614;9.894;2023-03-30T00:23:10;100506.97;;;9.16;84.76
21781;BME280;52576;53.614;9.894;2023-03-30T00:25:15;100501.84;;;9.15;84.73
21781;BME280;52576;53.614;9.894;2023-03-30T00:27:19;100500.16;;;9.14;84.79
21781;BME280;52576;53.614;9.894;2023-03-30T00:29:24;100500.25;;;9.12;84.77
21781;BME280;52576;53.614;9.894;2023-03-30T00:31:27;100500.25;;;9.12;84.95
21781;BME280;52576;53.614;9.894;2023-03-30T00:33:31;100487.19;;;9.12;84.94
21781;BME280;52576;53.614;9.894;2023-03-30T00:35:50;100481.97;;;9.12;85.06
21781;BME280;52576;53.614;9.894;2023-03-30T00:37:54;100478.41;;;9.13;84.90
21781;BME280;52576;53.614;9.894;2023-03-30T00:39:57;100479.25;;;9.14;85.02
21781;BME280;52576;53.614;9.894;2023-03-30T00:42:00;100473.06;;;9.15;85.04
21781;BME280;52576;53.614;9.894;2023-03-30T00:44:05;100472.97;;;9.16;85.01
21781;BME280;52576;53.614;9.894;2023-03-30T00:46:11;100467.75;;;9.16;85.12
21781;BME280;52576;53.614;9.894;2023-03-30T00:48:17;100464.19;;;9.17;85.11
21781;BME280;52576;53.614;9.894;2023-03-30T00:50:25;100452.06;;;9.16;85.05
21781;BME280;52576;53.614;9.894;2023-03-30T00:52:30;100441.59;;;9.16;84.97
21781;BME280;52576;53.614;9.894;2023-03-30T00:54:34;100441.59;;;9.16;84.97
21781;BME280;52576;53.614;9.894;2023-03-30T00:56:38;100434.78;;;9.14;84.99
21781;BME280;52576;53.614;9.894;2023-03-30T00:58:42;100429.66;;;9.12;85.02
21781;BME280;52576;53.614;9.894;2023-03-30T01:00:46;100420.16;;;9.11;85.06
21781;BME280;52576;53.614;9.894;2023-03-30T01:02:56;100419.44;;;9.09;85.03
21781;BME280;52576;53.614;9.894;2023-03-30T01:05:01;100415.03;;;9.10;85.19
21781;BME280;52576;53.614;9.894;2023-03-30T01:07:06;100408.97;;;9.09;85.16
21781;BME280;52576;53.614;9.894;2023-03-30T01:09:13;100399.47;;;9.08;85.37
21781;BME280;52576;53.614;9.894;2023-03-30T01:11:17;100410.84;;;9.07;85.24
21781;BME280;52576;53.614;9.894;2023-03-30T01:13:21;100397.88;;;9.06;85.27
21781;BME280;52576;53.614;9.894;2023-03-30T01:15:24;100398.72;;;9.06;85.21
21781;BME280;52576;53.614;9.894;2023-03-30T01:17:31;100388.28;;;9.06;85.38
21781;BME280;52576;53.614;9.894;2023-03-30T01:20:06;100398.63;;;9.08;85.36
21781;BME280;52576;53.614;9.894;2023-03-30T01:25:20;100387.34;;;9.07;85.40
21781;BME280;52576;53.614;9.894;2023-03-30T01:27:56;100382.84;;;9.09;85.39
21781;BME280;52576;53.614;9.894;2023-03-30T01:30:17;100376.78;;;9.09;85.40
21781;BME280;52576;53.614;9.894;2023-03-30T01:32:43;100375.00;;;9.09;85.31
21781;BME280;52576;53.614;9.894;2023-03-30T01:35:10;100370.69;;;9.08;85.37
21781;BME280;52576;53.614;9.894;2023-03-30T01:37:54;100365.47;;;9.08;85.50
21781;BME280;52576;53.614;9.894;2023-03-30T01:40:06;100369.88;;;9.08;85.46
21781;BME280;52576;53.614;9.894;2023-03-30T01:42:18;100369.03;;;9.07;85.42
21781;BME280;52576;53.614;9.894;2023-03-30T01:44:29;100369.03;;;9.07;85.53
21781;BME280;52576;53.614;9.894;2023-03-30T01:46:37;100349.06;;;9.06;85.72
21781;BME280;52576;53.614;9.894;2023-03-30T01:48:46;100349.06;;;9.06;85.64
21781;BME280;52576;53.614;9.894;2023-03-30T01:50:55;100356.06;;;9.06;85.56
21781;BME280;52576;53.614;9.894;2023-03-30T01:53:04;100352.59;;;9.05;85.67
21781;BME280;52576;53.614;9.894;2023-03-30T01:55:14;100357.84;;;9.05;85.62
21781;BME280;52576;53.614;9.894;2023-03-30T01:57:24;100350.09;;;9.04;85.68
21781;BME280;52576;53.614;9.894;2023-03-30T01:59:33;100338.78;;;9.03;85.88
21781;BME280;52576;53.614;9.894;2023-03-30T02:01:41;100337.03;;;9.04;85.92
21781;BME280;52576;53.614;9.894;2023-03-30T02:03:53;100329.28;;;9.02;85.84
21781;BME280;52576;53.614;9.894;2023-03-30T02:06:00;100314.63;;;9.00;85.96
21781;BME280;52576;53.614;9.894;2023-03-30T02:08:07;100306.91;;;8.98;86.09
21781;BME280;52576;53.614;9.894;2023-03-30T02:10:14;100303.53;;;8.96;86.22
21781;BME280;52576;53.614;9.894;2023-03-30T02:12:21;100288.06;;;8.93;86.41
21781;BME280;52576;53.614;9.894;2023-03-30T02:14:28;100269.88;;;8.92;86.56
21781;BME280;52576;53.614;9.894;2023-03-30T02:16:37;100275.22;;;8.90;86.53
21781;BME280;52576;53.614;9.894;2023-03-30T02:18:43;100288.47;;;8.87;86.70
21781;BME280;52576;53.614;9.894;2023-03-30T02:20:47;100282.41;;;8.87;86.86
21781;BME280;52576;53.614;9.894;2023-03-30T02:22:50;100276.34;;;8.86;86.95
21781;BME280;52576;53.614;9.894;2023-03-30T02:24:55;100276.34;;;8.86;87.10
21781;BME280;52576;53.614;9.894;2023-03-30T02:27:01;100274.66;;;8.85;87.11
21781;BME280;52576;53.614;9.894;2023-03-30T02:29:05;100264.22;;;8.85;87.21
21781;BME280;52576;53.614;9.894;2023-03-30T02:31:10;100264.22;;;8.85;87.33
21781;BME280;52576;53.614;9.894;2023-03-30T02:33:23;100263.38;;;8.84;87.35
21781;BME280;52576;53.614;9.894;2023-03-30T02:35:43;100246.88;;;8.84;87.55
21781;BME280;52576;53.614;9.894;2023-03-30T02:38:30;100256.47;;;8.83;87.62
21781;BME280;52576;53.614;9.894;2023-03-30T02:40:44;100247.00;;;8.82;87.65
21781;BME280;52576;53.614;9.894;2023-03-30T02:43:02;100253.06;;;8.83;87.85
21781;BME280;52576;53.614;9.894;2023-03-30T02:45:21;100253.06;;;8.83;87.89
21781;BME280;52576;53.614;9.894;2023-03-30T02:47:30;100252.09;;;8.84;87.92
21781;BME280;52576;53.614;9.894;2023-03-30T02:49:49;100256.38;;;8.85;88.05
21781;BME280;52576;53.614;9.894;2023-03-30T02:52:03;100244.16;;;8.85;88.11
21781;BME280;52576;53.614;9.894;2023-03-30T02:54:24;100235.47;;;8.85;88.07
21781;BME280;52576;53.614;9.894;2023-03-30T02:56:55;100231.09;;;8.85;88.11
21781;BME280;52576;53.614;9.894;2023-03-30T02:59:05;100232.88;;;8.85;88.13
21781;BME280;52576;53.614;9.894;2023-03-30T03:01:14;100225.03;;;8.85;88.15
21781;BME280;52576;53.614;9.894;2023-03-30T03:03:31;100217.19;;;8.85;88.06
21781;BME280;52576;53.614;9.894;2023-03-30T03:05:37;100208.50;;;8.84;88.25
21781;BME280;52576;53.614;9.894;2023-03-30T03:07:44;100208.41;;;8.86;88.26
21781;BME280;52576;53.614;9.894;2023-03-30T03:09:49;100204.00;;;8.87;88.19
21781;BME280;52576;53.614;9.894;2023-03-30T03:11:53;100190.09;;;8.86;88.33
21781;BME280;52576;53.614;9.894;2023-03-30T03:14:00;100184.88;;;8.86;88.30
21781;BME280;52576;53.614;9.894;2023-03-30T03:16:09;100182.25;;;8.86;88.34
21781;BME280;52576;53.614;9.894;2023-03-30T03:18:21;100177.03;;;8.86;88.40
21781;BME280;52576;53.614;9.894;2023-03-30T03:20:24;100171.81;;;8.86;88.43
21781;BME280;52576;53.614;9.894;2023-03-30T03:22:32;100168.47;;;8.84;88.32
21781;BME280;52576;53.614;9.894;2023-03-30T03:24:36;100165.16;;;8.82;88.34
21781;BME280;52576;53.614;9.894;2023-03-30T03:26:43;100160.13;;;8.79;88.35
21781;BME280;52576;53.614;9.894;2023-03-30T03:28:47;100151.78;;;8.74;88.17
21781;BME280;52576;53.614;9.894;2023-03-30T03:30:50;100150.31;;;8.70;88.40
21781;BME280;52576;53.614;9.894;2023-03-30T03:32:59;100145.28;;;8.67;88.26
21781;BME280;52576;53.614;9.894;2023-03-30T03:35:05;100143.81;;;8.63;88.43
21781;BME280;52576;53.614;9.894;2023-03-30T03:37:09;100141.41;;;8.60;88.34
21781;BME280;52576;53.614;9.894;2023-03-30T03:39:12;100146.88;;;8.57;88.28
21781;BME280;52576;53.614;9.894;2023-03-30T03:41:16;100158.28;;;8.56;88.42
21781;BME280;52576;53.614;9.894;2023-03-30T03:43:20;100151.38;;;8.55;88.43
21781;BME280;52576;53.614;9.894;2023-03-30T03:45:24;100152.22;;;8.55;88.45
21781;BME280;52576;53.614;9.894;2023-03-30T03:47:31;100149.69;;;8.54;88.58
21781;BME280;52576;53.614;9.894;2023-03-30T03:49:36;100135.69;;;8.55;88.59
21781;BME280;52576;53.614;9.894;2023-03-30T03:51:39;100132.16;;;8.56;88.60
21781;BME280;52576;53.614;9.894;2023-03-30T03:53:43;100126.09;;;8.55;88.69
21781;BME280;52576;53.614;9.894;2023-03-30T03:55:48;100127.75;;;8.56;88.81
21781;BME280;52576;53.614;9.894;2023-03-30T03:57:53;100119.94;;;8.56;88.76
21781;BME280;52576;53.614;9.894;2023-03-30T03:59:56;100116.38;;;8.57;88.80
21781;BME280;52576;53.614;9.894;2023-03-30T04:02:00;100119.69;;;8.59;88.95
21781;BME280;52576;53.614;9.894;2023-03-30T04:04:06;100117.06;;;8.59;88.88
21781;BME280;52576;53.614;9.894;2023-03-30T04:06:11;100114.34;;;8.61;88.89
21781;BME280;52576;53.614;9.894;2023-03-30T04:08:14;100110.81;;;8.62;88.80
21781;BME280;52576;53.614;9.894;2023-03-30T04:10:19;100101.19;;;8.62;88.75
21781;BME280;52576;53.614;9.894;2023-03-30T04:12:27;100104.53;;;8.64;88.81
21781;BME280;52576;53.614;9.894;2023-03-30T04:14:53;100102.75;;;8.65;88.80
21781;BME280;52576;53.614;9.894;2023-03-30T04:17:19;100099.09;;;8.67;88.85
21781;BME280;52576;53.614;9.894;2023-03-30T04:19:49;100103.28;;;8.70;88.77
21781;BME280;52576;53.614;9.894;2023-03-30T04:22:18;100099.72;;;8.71;88.83
21781;BME280;52576;53.614;9.894;2023-03-30T04:24:44;100085.72;;;8.72;88.79
21781;BME280;52576;53.614;9.894;2023-03-30T04:27:06;100083.00;;;8.73;88.76
21781;BME280;52576;53.614;9.894;2023-03-30T04:29:31;100082.91;;;8.75;88.63
21781;BME280;52576;53.614;9.894;2023-03-30T04:31:50;100090.75;;;8.75;88.59
21781;BME280;52576;53.614;9.894;2023-03-30T04:33:56;100080.28;;;8.75;88.69
21781;BME280;52576;53.614;9.894;2023-03-30T04:36:21;100082.16;;;8.73;88.57
21781;BME280;52576;53.614;9.894;2023-03-30T04:38:36;100075.28;;;8.72;88.45
21781;BME280;52576;53.614;9.894;2023-03-30T04:41:09;100065.03;;;8.69;88.50
21781;BME280;52576;53.614;9.894;2023-03-30T04:43:47;100059.19;;;8.65;88.47
21781;BME280;52576;53.614;9.894;2023-03-30T04:46:10;100056.56;;;8.65;88.67
21781;BME280;52576;53.614;9.894;2023-03-30T04:48:34;100050.50;;;8.65;88.39
21781;BME280;52576;53.614;9.894;2023-03-30T04:51:07;100051.44;;;8.64;88.41
21781;BME280;52576;53.614;9.894;2023-03-30T04:53:22;100059.28;;;8.64;88.41
21781;BME280;52576;53.614;9.894;2023-03-30T04:55:48;100048.84;;;8.64;88.28
21781;BME280;52576;53.614;9.894;2023-03-30T04:58:15;100047.06;;;8.64;88.33
21781;BME280;52576;53.614;9.894;2023-03-30T05:00:48;100046.22;;;8.64;88.31
21781;BME280;52576;53.614;9.894;2023-03-30T05:03:20;100044.56;;;8.63;88.30
21781;BME280;52576;53.614;9.894;2023-03-30T05:05:59;100039.34;;;8.63;88.25
21781;BME280;52576;53.614;9.894;2023-03-30T05:08:18;100034.94;;;8.63;88.25
21781;BME280;52576;53.614;9.894;2023-03-30T05:10:49;100036.63;;;8.64;88.30
21781;BME280;52576;53.614;9.894;2023-03-30T05:13:13;100033.16;;;8.64;88.24
21781;BME280;52576;53.614;9.894;2023-03-30T05:15:30;100039.13;;;8.66;88.24
21781;BME280;52576;53.614;9.894;2023-03-30T05:17:58;100034.53;;;8.69;88.29
21781;BME280;52576;53.614;9.894;2023-03-30T05:20:19;100033.38;;;8.73;88.35
21781;BME280;52576;53.614;9.894;2023-03-30T05:22:38;100031.38;;;8.77;88.38
21781;BME280;52576;53.614;9.894;2023-03-30T05:24:55;100030.22;;;8.81;88.27
21781;BME280;52576;53.614;9.894;2023-03-30T05:27:14;100033.66;;;8.81;88.30
21781;BME280;52576;53.614;9.894;2023-03-30T05:29:29;100032.59;;;8.84;88.27
21781;BME280;52576;53.614;9.894;2023-03-30T05:31:53;100026.19;;;8.88;88.25
21781;BME280;52576;53.614;9.894;2023-03-30T05:34:14;100018.88;;;8.93;88.13
21781;BME280;52576;53.614;9.894;2023-03-30T05:36:24;100024.59;;;8.98;88.00
21781;BME280;52576;53.614;9.894;2023-03-30T05:38:40;100018.00;;;9.05;87.95
21781;BME280;52576;53.614;9.894;2023-03-30T05:40:59;100014.69;;;9.14;88.02
21781;BME280;52576;53.614;9.894;2023-03-30T05:43:23;100025.56;;;9.21;87.77
21781;BME280;52576;53.614;9.894;2023-03-30T05:45:50;100021.44;;;9.30;87.47
21781;BME280;52576;53.614;9.894;2023-03-30T05:48:19;100032.16;;;9.38;87.31
21781;BME280;52576;53.614;9.894;2023-03-30T05:50:49;100035.88;;;9.46;87.04
21781;BME280;52576;53.614;9.894;2023-03-30T05:53:02;100032.72;;;9.54;86.71
21781;BME280;52576;53.614;9.894;2023-03-30T05:55:42;100049.63;;;9.61;86.33
21781;BME280;52576;53.614;9.894;2023-03-30T05:57:46;100048.41;;;9.65;86.16
21781;BME280;52576;53.614;9.894;2023-03-30T06:00:08;100063.78;;;9.70;85.87
21781;BME280;52576;53.614;9.894;2023-03-30T06:02:13;100052.25;;;9.72;85.74
21781;BME280;52576;53.614;9.894;2023-03-30T06:04:20;100044.41;;;9.72;85.81
21781;BME280;52576;53.614;9.894;2023-03-30T06:06:24;100036.56;;;9.72;85.91
21781;BME280;52576;53.614;9.894;2023-03-30T06:08:27;100025.25;;;9.72;85.96
21781;BME280;52576;53.614;9.894;2023-03-30T06:10:34;100018.34;;;9.71;86.12
21781;BME280;52576;53.614;9.894;2023-03-30T06:12:37;100003.59;;;9.70;86.26
21781;BME280;52576;53.614;9.894;2023-03-30T06:14:48;100007.06;;;9.70;86.60
21781;BME280;52576;53.614;9.894;2023-03-30T06:17:03;100005.28;;;9.71;86.75
21781;BME280;52576;53.614;9.894;2023-03-30T06:19:07;99999.91;;;9.72;86.65
21781;BME280;52576;53.614;9.894;2023-03-30T06:21:11;99998.88;;;9.75;86.85
21781;BME280;52576;53.614;9.894;2023-03-30T06:23:34;99991.63;;;9.78;86.94
21781;BME280;52576;53.614;9.894;2023-03-30T06:25:45;99998.28;;;9.82;87.13
21781;BME280;52576;53.614;9.894;2023-03-30T06:27:48;100000.69;;;9.85;87.06
21781;BME280;52576;53.614;9.894;2023-03-30T06:29:51;100005.66;;;9.88;87.10
21781;BME280;52576;53.614;9.894;2023-03-30T06:31:55;100002.09;;;9.90;87.28
21781;BME280;52576;53.614;9.894;2023-03-30T06:34:27;100006.03;;;9.95;87.41
21781;BME280;52576;53.614;9.894;2023-03-30T06:36:30;100003.28;;;9.97;87.30
21781;BME280;52576;53.614;9.894;2023-03-30T06:38:48;100007.22;;;10.02;87.37
21781;BME280;52576;53.614;9.894;2023-03-30T06:40:51;100002.59;;;10.06;87.49
21781;BME280;52576;53.614;9.894;2023-03-30T06:42:58;100008.22;;;10.12;87.54
21781;BME280;52576;53.614;9.894;2023-03-30T06:45:19;100009.50;;;10.18;87.32
21781;BME280;52576;53.614;9.894;2023-03-30T06:47:22;100005.84;;;10.20;87.61
21781;BME280;52576;53.614;9.894;2023-03-30T06:49:27;100002.16;;;10.23;87.36
21781;BME280;52576;53.614;9.894;2023-03-30T06:51:44;100000.97;;;10.27;87.23
21781;BME280;52576;53.614;9.894;2023-03-30T06:53:48;99995.50;;;10.30;87.17
21781;BME280;52576;53.614;9.894;2023-03-30T06:55:52;100003.94;;;10.34;87.36
21781;BME280;52576;53.614;9.894;2023-03-30T06:57:56;100006.91;;;10.40;87.15
21781;BME280;52576;53.614;9.894;2023-03-30T07:00:05;100004.53;;;10.48;87.24
21781;BME280;52576;53.614;9.894;2023-03-30T07:02:14;99997.97;;;10.54;87.27
21781;BME280;52576;53.614;9.894;2023-03-30T07:04:39;99993.22;;;10.59;86.89
21781;BME280;52576;53.614;9.894;2023-03-30T07:07:06;100003.44;;;10.62;87.05
21781;BME280;52576;53.614;9.894;2023-03-30T07:09:10;99997.81;;;10.67;86.99
21781;BME280;52576;53.614;9.894;2023-03-30T07:11:14;99990.44;;;10.72;86.85
21781;BME280;52576;53.614;9.894;2023-03-30T07:13:18;99996.84;;;10.79;86.69
21781;BME280;52576;53.614;9.894;2023-03-30T07:15:23;99993.63;;;10.86;86.47
21781;BME280;52576;53.614;9.894;2023-03-30T07:17:26;99989.66;;;10.92;86.44
21781;BME280;52576;53.614;9.894;2023-03-30T07:19:29;100003.25;;;10.97;86.33
21781;BME280;52576;53.614;9.894;2023-03-30T07:21:34;99999.66;;;10.98;86.14
21781;BME280;52576;53.614;9.894;2023-03-30T07:23:38;100003.94;;;10.99;85.86
21781;BME280;52576;53.614;9.894;2023-03-30T07:25:44;99995.97;;;11.01;85.68
21781;BME280;52576;53.614;9.894;2023-03-30T07:27:51;99998.47;;;11.02;85.49
21781;BME280;52576;53.614;9.894;2023-03-30T07:29:54;100000.00;;;11.05;85.41
21781;BME280;52576;53.614;9.894;2023-03-30T07:32:12;100001.56;;;11.07;85.16
21781;BME280;52576;53.614;9.894;2023-03-30T07:34:15;99997.03;;;11.09;85.08
21781;BME280;52576;53.614;9.894;2023-03-30T07:36:25;99994.97;;;11.13;84.73
21781;BME280;52576;53.614;9.894;2023-03-30T07:38:30;99997.22;;;11.17;84.63
21781;BME280;52576;53.614;9.894;2023-03-30T07:40:34;99995.03;;;11.22;84.40
21781;BME280;52576;53.614;9.894;2023-03-30T07:42:40;99999.78;;;11.29;84.37
21781;BME280;52576;53.614;9.894;2023-03-30T07:44:43;100002.06;;;11.33;84.19
21781;BME280;52576;53.614;9.894;2023-03-30T07:46:50;99992.13;;;11.37;84.11
21781;BME280;52576;53.614;9.894;2023-03-30T07:48:58;99977.81;;;11.41;83.92
21781;BME280;52576;53.614;9.894;2023-03-30T07:51:03;99987.78;;;11.47;83.68
21781;BME280;52576;53.614;9.894;2023-03-30T07:53:11;99997.66;;;11.54;83.50
21781;BME280;52576;53.614;9.894;2023-03-30T07:55:17;99988.19;;;11.63;83.15
21781;BME280;52576;53.614;9.894;2023-03-30T07:57:32;99993.47;;;11.73;82.84
21781;BME280;52576;53.614;9.894;2023-03-30T07:59:36;99995.50;;;11.80;82.56
21781;BME280;52576;53.614;9.894;2023-03-30T08:01:59;100002.34;;;11.93;82.39
21781;BME280;52576;53.614;9.894;2023-03-30T08:04:17;100011.09;;;12.03;82.09
21781;BME280;52576;53.614;9.894;2023-03-30T08:06:20;100005.06;;;12.12;81.79
21781;BME280;52576;53.614;9.894;2023-03-30T08:08:28;100001.81;;;12.19;81.63
21781;BME280;52576;53.614;9.894;2023-03-30T08:10:34;100008.03;;;12.28;81.14
21781;BME280;52576;53.614;9.894;2023-03-30T08:12:37;100005.84;;;12.33;80.79
21781;BME280;52576;53.614;9.894;2023-03-30T08:14:40;100012.38;;;12.39;80.47
21781;BME280;52576;53.614;9.894;2023-03-30T08:16:44;100007.44;;;12.45;80.22
21781;BME280;52576;53.614;9.894;2023-03-30T08:18:47;100006.63;;;12.54;79.71
21781;BME280;52576;53.614;9.894;2023-03-30T08:20:51;100013.97;;;12.61;79.10
21781;BME280;52576;53.614;9.894;2023-03-30T08:22:55;100010.13;;;12.65;78.73
21781;BME280;52576;53.614;9.894;2023-03-30T08:24:58;100008.91;;;12.69;78.42
21781;BME280;52576;53.614;9.894;2023-03-30T08:27:03;100017.19;;;12.74;78.09
21781;BME280;52576;53.614;9.894;2023-03-30T08:29:06;100017.50;;;12.80;77.39
21781;BME280;52576;53.614;9.894;2023-03-30T08:31:09;100014.19;;;12.88;77.56
21781;BME280;52576;53.614;9.894;2023-03-30T08:33:13;100013.66;;;12.94;77.51
21781;BME280;52576;53.614;9.894;2023-03-30T08:35:17;100017.69;;;12.98;77.10
21781;BME280;52576;53.614;9.894;2023-03-30T08:37:20;100016.72;;;12.99;76.73
21781;BME280;52576;53.614;9.894;2023-03-30T08:39:23;100013.09;;;13.00;76.72
21781;BME280;52576;53.614;9.894;2023-03-30T08:44:15;99998.69;;;13.04;76.16
21781;BME280;52576;53.614;9.894;2023-03-30T08:46:22;99995.38;;;13.02;76.20
21781;BME280;52576;53.614;9.894;2023-03-30T08:48:29;99993.31;;;12.96;76.46
21781;BME280;52576;53.614;9.894;2023-03-30T08:50:34;99984.28;;;12.89;76.63
21781;BME280;52576;53.614;9.894;2023-03-30T08:52:38;99994.50;;;12.82;76.84
21781;BME280;52576;53.614;9.894;2023-03-30T08:54:43;99984.25;;;12.79;77.06
21781;BME280;52576;53.614;9.894;2023-03-30T08:56:56;99981.50;;;12.81;77.62
21781;BME280;52576;53.614;9.894;2023-03-30T08:59:08;99992.59;;;12.84;77.37
21781;BME280;52576;53.614;9.894;2023-03-30T09:01:19;100001.75;;;12.90;77.73
21781;BME280;52576;53.614;9.894;2023-03-30T09:03:29;99982.09;;;12.94;77.62
21781;BME280;52576;53.614;9.894;2023-03-30T09:05:37;99989.13;;;13.03;77.66
21781;BME280;52576;53.614;9.894;2023-03-30T09:07:50;99989.03;;;13.14;77.50
21781;BME280;52576;53.614;9.894;2023-03-30T09:09:56;99991.25;;;13.29;77.21
21781;BME280;52576;53.614;9.894;2023-03-30T09:12:04;99989.19;;;13.42;76.48
21781;BME280;52576;53.614;9.894;2023-03-30T09:14:18;99981.28;;;13.51;76.31
21781;BME280;52576;53.614;9.894;2023-03-30T09:16:32;99966.84;;;13.65;75.70
21781;BME280;52576;53.614;9.894;2023-03-30T09:18:41;99968.75;;;13.82;75.44
21781;BME280;52576;53.614;9.894;2023-03-30T09:20:46;99969.28;;;13.96;74.10
21781;BME280;52576;53.614;9.894;2023-03-30T09:22:51;99968.38;;;14.05;73.19
21781;BME280;52576;53.614;9.894;2023-03-30T09:24:55;99969.47;;;14.12;72.80
21781;BME280;52576;53.614;9.894;2023-03-30T09:27:02;99970.56;;;14.19;72.77
21781;BME280;52576;53.614;9.894;2023-03-30T09:29:13;99975.28;;;14.25;72.38
21781;BME280;52576;53.614;9.894;2023-03-30T09:31:22;99974.00;;;14.29;72.73
21781;BME280;52576;53.614;9.894;2023-03-30T09:33:37;99992.16;;;14.32;72.08
21781;BME280;52576;53.614;9.894;2023-03-30T09:35:54;99985.22;;;14.31;71.69
21781;BME280;52576;53.614;9.894;2023-03-30T09:38:01;99977.63;;;14.28;71.23
21781;BME280;52576;53.614;9.894;2023-03-30T09:40:18;99974.72;;;14.21;71.24
21781;BME280;52576;53.614;9.894;2023-03-30T09:42:31;99978.63;;;14.17;71.08
21781;BME280;52576;53.614;9.894;2023-03-30T09:44:39;99972.81;;;14.14;71.74
21781;BME280;52576;53.614;9.894;2023-03-30T09:46:45;99975.31;;;14.15;72.04
21781;BME280;52576;53.614;9.894;2023-03-30T09:48:52;99979.84;;;14.23;72.28
21781;BME280;52576;53.614;9.894;2023-03-30T09:50:55;99980.25;;;14.28;72.53
21781;BME280;52576;53.614;9.894;2023-03-30T09:52:59;99984.38;;;14.31;72.33
21781;BME280;52576;53.614;9.894;2023-03-30T09:55:17;99982.91;;;14.28;71.74
21781;BME280;52576;53.614;9.894;2023-03-30T09:57:28;99979.56;;;14.26;72.00
21781;BME280;52576;53.614;9.894;2023-03-30T09:59:34;99986.03;;;14.32;71.74
21781;BME280;52576;53.614;9.894;2023-03-30T10:01:37;99975.75;;;14.38;71.26
21781;BME280;52576;53.614;9.894;2023-03-30T10:03:42;99982.28;;;14.44;71.16
21781;BME280;52576;53.614;9.894;2023-03-30T10:05:59;99974.78;;;14.49;70.58
21781;BME280;52576;53.614;9.894;2023-03-30T10:08:05;99974.00;;;14.56;70.88
21781;BME280;52576;53.614;9.894;2023-03-30T10:10:29;99974.81;;;14.67;70.25
21781;BME280;52576;53.614;9.894;2023-03-30T10:12:33;99976.56;;;14.76;69.99
21781;BME280;52576;53.614;9.894;2023-03-30T10:14:36;99973.31;;;14.82;69.76
21781;BME280;52576;53.614;9.894;2023-03-30T10:16:42;99970.38;;;14.85;69.12
21781;BME280;52576;53.614;9.894;2023-03-30T10:18:46;99973.84;;;14.85;68.32
21781;BME280;52576;53.614;9.894;2023-03-30T10:20:52;99972.03;;;14.86;68.40
21781;BME280;52576;53.614;9.894;2023-03-30T10:22:59;99961.63;;;14.84;67.55
21781;BME280;52576;53.614;9.894;2023-03-30T10:25:08;99962.47;;;14.85;67.63
21781;BME280;52576;53.614;9.894;2023-03-30T10:27:12;99966.75;;;14.86;67.05
21781;BME280;52576;53.614;9.894;2023-03-30T10:29:17;99961.47;;;14.86;67.01
21781;BME280;52576;53.614;9.894;2023-03-30T10:31:23;99964.13;;;14.86;66.63
21781;BME280;52576;53.614;9.894;2023-03-30T10:33:30;99958.16;;;14.84;66.38
21781;BME280;52576;53.614;9.894;2023-03-30T10:35:39;99957.81;;;14.79;66.47
21781;BME280;52576;53.614;9.894;2023-03-30T10:37:45;99959.22;;;14.73;66.36
21781;BME280;52576;53.614;9.894;2023-03-30T10:39:51;99959.22;;;14.73;65.99
21781;BME280;52576;53.614;9.894;2023-03-30T10:41:55;99959.75;;;14.77;66.20
21781;BME280;52576;53.614;9.894;2023-03-30T10:44:06;99957.47;;;14.82;65.61
21781;BME280;52576;53.614;9.894;2023-03-30T10:46:18;99957.47;;;14.82;65.68
21781;BME280;52576;53.614;9.894;2023-03-30T10:48:38;99955.84;;;14.81;65.77
21781;BME280;52576;53.614;9.894;2023-03-30T10:50:49;99943.94;;;14.77;65.45
21781;BME280;52576;53.614;9.894;2023-03-30T10:53:04;99948.00;;;14.71;65.43
21781;BME280;52576;53.614;9.894;2023-03-30T10:55:14;99950.38;;;14.65;65.77
21781;BME280;52576;53.614;9.894;2023-03-30T10:57:21;99960.53;;;14.59;65.51
21781;BME280;52576;53.614;9.894;2023-03-30T11:02:26;99955.81;;;14.63;66.02
21781;BME280;52576;53.614;9.894;2023-03-30T11:04:35;99948.66;;;14.73;65.71
21781;BME280;52576;53.614;9.894;2023-03-30T11:06:40;99951.91;;;14.85;64.67
21781;BME280;52576;53.614;9.894;2023-03-30T11:08:47;99941.16;;;14.96;63.68
21781;BME280;52576;53.614;9.894;2023-03-30T11:10:55;99960.38;;;15.06;62.35
21781;BME280;52576;53.614;9.894;2023-03-30T11:13:02;99954.19;;;15.15;60.33
21781;BME280;52576;53.614;9.894;2023-03-30T11:15:12;99950.25;;;15.19;60.40
21781;BME280;52576;53.614;9.894;2023-03-30T11:17:21;99955.25;;;15.22;60.11
21781;BME280;52576;53.614;9.894;2023-03-30T11:19:29;99968.81;;;15.27;59.33
21781;BME280;52576;53.614;9.894;2023-03-30T11:21:38;99967.88;;;15.37;58.96
21781;BME280;52576;53.614;9.894;2023-03-30T11:23:46;99962.00;;;15.43;58.01
21781;BME280;52576;53.614;9.894;2023-03-30T11:26:01;99957.41;;;15.45;58.60
21781;BME280;52576;53.614;9.894;2023-03-30T11:28:14;99949.84;;;15.50;58.10
21781;BME280;52576;53.614;9.894;2023-03-30T11:30:22;99949.38;;;15.54;57.90
21781;BME280;52576;53.614;9.894;2023-03-30T11:32:30;99961.16;;;15.60;57.70
21781;BME280;52576;53.614;9.894;2023-03-30T11:34:44;99963.19;;;15.66;57.11
21781;BME280;52576;53.614;9.894;2023-03-30T11:36:58;99951.72;;;15.75;57.22
21781;BME280;52576;53.614;9.894;2023-03-30T11:39:05;99959.69;;;15.83;56.46